createdAt,value
2022-08-17T00:00:43.077Z,91.93
2022-08-17T00:03:54.788Z,92.12
2022-08-17T00:07:05.078Z,93.04
2022-08-17T00:10:16.452Z,92.67
2022-08-17T00:13:30.491Z,92.33
2022-08-17T00:16:55.453Z,93.07
2022-08-17T00:20:09.011Z,93.30
2022-08-17T03:29:07.781Z,100.00
2022-08-17T03:32:20.554Z,100.00
2022-08-17T03:35:33.061Z,100.00
2022-08-17T03:38:43.155Z,100.00
2022-08-17T03:41:56.576Z,100.00
2022-08-17T03:45:15.418Z,100.00
2022-08-17T03:48:43.040Z,100.00
2022-08-17T03:52:11.445Z,100.00
2022-08-17T03:55:39.302Z,100.00
2022-08-17T03:58:50.512Z,100.00
2022-08-17T04:02:09.066Z,100.00
2022-08-17T04:05:19.454Z,100.00
2022-08-17T04:08:30.138Z,100.00
2022-08-17T04:11:40.794Z,100.00
2022-08-17T04:14:53.521Z,100.00
2022-08-17T04:18:07.670Z,100.00
2022-08-17T04:21:22.193Z,100.00
2022-08-17T04:24:33.072Z,100.00
2022-08-17T04:27:43.639Z,100.00
2022-08-17T04:30:54.123Z,100.00
2022-08-17T04:34:05.910Z,100.00
2022-08-17T04:37:15.949Z,100.00
2022-08-17T04:40:46.845Z,100.00
2022-08-17T04:43:58.575Z,100.00
2022-08-17T04:47:10.565Z,100.00
2022-08-17T04:50:24.707Z,100.00
2022-08-17T04:53:34.785Z,100.00
2022-08-17T04:56:45.317Z,100.00
2022-08-17T04:59:55.572Z,100.00
2022-08-17T05:03:06.805Z,100.00
2022-08-17T05:06:18.449Z,100.00
2022-08-17T05:09:29.168Z,100.00
2022-08-17T05:12:39.332Z,100.00
2022-08-17T05:15:51.347Z,100.00
2022-08-17T05:19:02.597Z,100.00
2022-08-17T05:22:15.402Z,100.00
2022-08-17T05:25:28.532Z,100.00
2022-08-17T05:28:42.457Z,100.00
2022-08-17T05:31:57.056Z,100.00
2022-08-17T05:35:08.485Z,100.00
2022-08-17T05:38:22.533Z,100.00
2022-08-17T05:41:32.837Z,100.00
2022-08-17T05:44:43.112Z,100.00
2022-08-17T05:47:53.410Z,100.00
2022-08-17T05:51:21.836Z,100.00
2022-08-17T05:54:39.960Z,99.86
2022-08-17T05:58:01.016Z,96.74
2022-08-17T06:01:23.381Z,90.71
2022-08-17T06:04:47.021Z,87.65
2022-08-17T06:08:04.888Z,88.91
2022-08-17T06:11:26.648Z,88.71
2022-08-17T06:14:51.879Z,90.48
2022-08-17T06:18:06.714Z,92.54
2022-08-17T06:21:20.968Z,92.85
2022-08-17T06:24:40.345Z,94.60
2022-08-17T06:27:57.744Z,95.30
2022-08-17T06:31:16.590Z,94.46
2022-08-17T06:34:26.958Z,94.24
2022-08-17T06:38:02.253Z,92.00
2022-08-17T06:41:19.492Z,91.17
2022-08-17T06:44:47.598Z,90.20
2022-08-17T06:48:09.007Z,89.23
2022-08-17T06:51:26.053Z,86.76
2022-08-17T06:54:45.778Z,86.81
2022-08-17T06:58:05.747Z,87.06
2022-08-17T07:01:33.676Z,86.38
2022-08-17T07:04:44.451Z,85.63
2022-08-17T07:08:04.642Z,85.22
2022-08-17T07:11:19.418Z,84.10
2022-08-17T07:14:37.604Z,83.09
2022-08-17T07:17:49.914Z,83.16
2022-08-17T07:21:17.481Z,81.36
2022-08-17T07:24:37.239Z,80.07
2022-08-17T07:27:51.348Z,79.60
2022-08-17T07:31:02.100Z,79.20
2022-08-17T07:34:14.657Z,78.70
2022-08-17T07:37:24.568Z,77.63
2022-08-17T07:40:37.659Z,76.25
2022-08-17T07:43:52.422Z,75.98
2022-08-17T07:47:20.463Z,74.84
2022-08-17T07:50:32.382Z,73.48
2022-08-17T07:53:42.605Z,70.78
2022-08-17T07:56:55.142Z,70.83
2022-08-17T08:00:16.789Z,70.37
2022-08-17T08:03:28.434Z,68.60
2022-08-17T08:06:52.734Z,70.19
2022-08-17T08:10:10.563Z,69.13
2022-08-17T08:13:25.057Z,68.04
2022-08-17T08:16:36.710Z,68.15
2022-08-17T08:19:46.972Z,66.35
2022-08-17T08:23:07.163Z,66.59
2022-08-17T08:26:29.401Z,61.94
2022-08-17T08:29:47.939Z,56.95
2022-08-17T08:33:10.826Z,54.39
2022-08-17T08:37:15.991Z,54.53
2022-08-17T08:40:21.538Z,54.56
2022-08-17T08:43:43.423Z,54.76
2022-08-17T08:47:02.367Z,58.25
2022-08-17T08:50:37.154Z,53.97
2022-08-17T08:53:59.724Z,53.91
2022-08-17T08:57:33.380Z,53.66
2022-08-17T09:00:48.138Z,54.58
2022-08-17T09:04:23.722Z,52.10
2022-08-17T09:07:42.900Z,52.88
2022-08-17T09:11:00.434Z,52.12
2022-08-17T09:14:21.760Z,52.82
2022-08-17T09:17:39.889Z,52.35
2022-08-17T09:20:55.173Z,52.73
2022-08-17T09:24:12.658Z,52.29
2022-08-17T09:27:28.110Z,50.96
2022-08-17T09:30:45.463Z,51.07
2022-08-17T09:33:58.638Z,51.65
2022-08-17T09:37:19.795Z,51.87
2022-08-17T09:40:34.904Z,52.28
2022-08-17T09:43:55.399Z,53.46
2022-08-17T09:47:13.656Z,53.90
2022-08-17T09:51:03.914Z,53.00
2022-08-17T09:54:20.945Z,53.18
2022-08-17T09:57:46.907Z,52.91
2022-08-17T10:01:03.982Z,53.41
2022-08-17T10:04:41.915Z,53.37
2022-08-17T10:07:57.404Z,52.98
2022-08-17T10:11:33.507Z,52.40
2022-08-17T10:14:55.117Z,51.79
2022-08-17T10:18:31.867Z,51.24
2022-08-17T10:22:14.903Z,49.25
2022-08-17T10:26:08.428Z,49.13
2022-08-17T10:29:26.475Z,48.32
2022-08-17T10:32:44.779Z,48.24
2022-08-17T10:36:07.507Z,48.00
2022-08-17T10:39:31.793Z,48.21
2022-08-17T10:42:50.134Z,48.32
2022-08-17T10:46:10.616Z,47.78
2022-08-17T10:49:47.366Z,47.08
2022-08-17T10:52:57.646Z,47.36
2022-08-17T10:56:40.504Z,47.16
2022-08-17T10:59:55.160Z,47.01
2022-08-17T11:03:19.648Z,47.80
2022-08-17T11:06:41.955Z,47.44
2022-08-17T11:10:13.641Z,47.37
2022-08-17T11:13:40.009Z,46.81
2022-08-17T11:17:04.982Z,46.69
2022-08-17T11:20:29.901Z,46.75
2022-08-17T11:24:08.388Z,45.78
2022-08-17T11:27:26.370Z,45.65
2022-08-17T11:30:50.233Z,45.50
2022-08-17T11:34:06.067Z,46.53
2022-08-17T11:37:37.368Z,46.59
2022-08-17T11:41:14.325Z,46.05
2022-08-17T11:44:39.154Z,46.52
2022-08-17T11:48:29.226Z,45.98
2022-08-17T11:52:11.869Z,45.82
2022-08-17T11:56:04.350Z,46.12
2022-08-17T11:59:51.757Z,46.96
2022-08-17T12:03:42.448Z,46.20
2022-08-17T12:07:11.236Z,46.35
2022-08-17T12:10:31.952Z,47.28
2022-08-17T12:13:47.578Z,47.99
2022-08-17T12:17:03.954Z,47.94
2022-08-17T12:20:23.073Z,47.75
2022-08-17T12:23:44.131Z,47.20
2022-08-17T12:26:58.837Z,45.65
2022-08-17T12:30:13.318Z,46.15
2022-08-17T12:33:28.468Z,45.82
2022-08-17T12:36:41.438Z,46.16
2022-08-17T12:39:55.496Z,45.56
2022-08-17T12:43:09.092Z,45.66
2022-08-17T12:46:19.537Z,45.52
2022-08-17T12:49:35.423Z,46.34
2022-08-17T12:52:46.973Z,46.44
2022-08-17T12:55:58.629Z,46.18
2022-08-17T12:59:12.086Z,46.90
2022-08-17T13:02:30.035Z,46.61
2022-08-17T13:05:44.011Z,47.10
2022-08-17T13:08:55.791Z,47.30
2022-08-17T13:12:07.496Z,47.43
2022-08-17T13:15:24.399Z,47.42
2022-08-17T13:18:42.241Z,47.72
2022-08-17T13:21:54.989Z,48.01
2022-08-17T13:25:09.221Z,47.57
2022-08-17T13:28:30.723Z,47.77
2022-08-17T13:31:52.623Z,47.98
2022-08-17T13:35:33.006Z,47.98
2022-08-17T13:38:51.165Z,47.19
2022-08-17T13:42:02.871Z,47.61
2022-08-17T13:45:50.898Z,47.46
2022-08-17T13:49:04.269Z,47.11
2022-08-17T13:52:35.318Z,47.73
2022-08-17T13:55:51.359Z,47.70
2022-08-17T13:59:07.908Z,48.05
2022-08-17T14:02:21.264Z,47.89
2022-08-17T14:05:33.725Z,47.96
2022-08-17T14:08:47.787Z,48.54
2022-08-17T14:11:58.745Z,48.71
2022-08-17T14:15:12.688Z,49.28
2022-08-17T14:18:49.858Z,48.84
2022-08-17T14:21:58.976Z,49.28
2022-08-17T14:25:12.078Z,49.59
2022-08-17T14:28:23.083Z,49.29
2022-08-17T14:31:39.034Z,48.97
2022-08-17T14:34:50.026Z,49.36
2022-08-17T14:38:00.126Z,48.87
2022-08-17T14:41:10.193Z,48.30
2022-08-17T14:44:20.517Z,48.15
2022-08-17T14:47:31.841Z,48.01
2022-08-17T14:50:46.112Z,48.52
2022-08-17T14:53:57.114Z,48.67
2022-08-17T14:57:33.475Z,48.80
2022-08-17T15:00:39.455Z,49.17
2022-08-17T15:03:53.897Z,50.21
2022-08-17T15:07:04.011Z,51.43
2022-08-17T15:10:15.669Z,51.81
2022-08-17T15:13:27.725Z,53.70
2022-08-17T15:16:38.521Z,54.01
2022-08-17T15:19:50.278Z,54.93
2022-08-17T15:23:00.366Z,55.96
2022-08-17T15:26:12.009Z,57.13
2022-08-17T15:29:22.601Z,58.19
2022-08-17T15:32:35.384Z,59.90
2022-08-17T15:35:50.686Z,60.29
2022-08-17T15:39:01.655Z,61.12
2022-08-17T15:42:12.331Z,61.89
2022-08-17T15:45:26.582Z,62.22
2022-08-17T15:48:43.409Z,63.01
2022-08-17T15:51:54.810Z,63.01
2022-08-17T15:55:07.240Z,62.73
2022-08-17T15:58:19.346Z,63.12
2022-08-17T16:02:21.598Z,62.01
2022-08-17T16:05:05.797Z,61.46
2022-08-17T16:08:21.671Z,60.82
2022-08-17T16:11:31.766Z,61.27
2022-08-17T16:14:42.163Z,60.26
2022-08-17T16:17:52.978Z,60.49
2022-08-17T16:21:22.208Z,60.49
2022-08-17T16:24:33.913Z,60.02
2022-08-17T16:27:44.771Z,60.40
2022-08-17T16:30:55.305Z,60.02
2022-08-17T16:34:17.799Z,59.86
2022-08-17T16:37:29.397Z,60.91
2022-08-17T16:40:42.335Z,61.37
2022-08-17T16:43:52.769Z,60.24
2022-08-17T16:47:02.868Z,60.47
2022-08-17T16:50:15.507Z,60.21
2022-08-17T16:53:26.707Z,59.70
2022-08-17T16:56:38.617Z,58.20
2022-08-17T16:59:50.233Z,57.47
2022-08-17T17:03:19.090Z,57.64
2022-08-17T17:06:45.027Z,57.92
2022-08-17T17:09:56.778Z,58.34
2022-08-17T17:13:14.032Z,58.27
2022-08-17T17:16:35.902Z,58.29
2022-08-17T17:19:50.762Z,59.21
2022-08-17T17:23:06.946Z,58.81
2022-08-17T17:26:38.927Z,58.95
2022-08-17T17:30:00.749Z,58.13
2022-08-17T17:33:14.472Z,58.29
2022-08-17T17:36:30.670Z,57.62
2022-08-17T17:39:46.872Z,57.79
2022-08-17T17:43:20.528Z,58.14
2022-08-17T17:46:37.879Z,57.79
2022-08-17T17:49:49.536Z,58.36
2022-08-17T17:53:05.119Z,58.08
2022-08-17T17:56:44.240Z,58.34
2022-08-17T18:00:04.654Z,58.25
2022-08-17T18:03:30.911Z,57.97
2022-08-17T18:06:54.915Z,58.18
2022-08-17T18:10:19.539Z,58.77
2022-08-17T18:13:56.898Z,58.74
2022-08-17T18:17:09.105Z,58.92
2022-08-17T18:20:43.250Z,59.40
2022-08-17T18:23:57.964Z,60.19
2022-08-17T18:27:24.003Z,59.75
2022-08-17T18:30:33.963Z,60.63
2022-08-17T18:33:46.425Z,61.11
2022-08-17T18:36:58.501Z,62.70
2022-08-17T18:40:33.650Z,62.90
2022-08-17T18:43:53.695Z,64.37
2022-08-17T18:47:14.967Z,76.73
2022-08-17T18:50:28.124Z,100.00
2022-08-17T18:53:41.723Z,100.00
2022-08-17T18:56:54.698Z,100.00
2022-08-17T19:00:13.411Z,100.00
2022-08-17T19:03:26.581Z,100.00
2022-08-17T19:06:37.709Z,100.00
2022-08-17T19:09:53.598Z,100.00
2022-08-17T19:13:12.333Z,100.00
2022-08-17T19:16:30.678Z,100.00
2022-08-17T19:19:50.299Z,100.00
2022-08-17T19:23:12.198Z,100.00
2022-08-17T19:26:51.100Z,100.00
2022-08-17T19:30:07.555Z,100.00
2022-08-17T19:33:19.365Z,100.00
2022-08-17T19:36:38.924Z,100.00
2022-08-17T19:40:00.207Z,100.00
2022-08-17T19:43:23.368Z,100.00
2022-08-17T19:46:43.047Z,100.00
2022-08-17T19:50:04.632Z,100.00
2022-08-17T19:53:41.782Z,100.00
2022-08-17T19:57:03.207Z,100.00
2022-08-17T20:00:16.810Z,100.00
2022-08-17T20:03:31.621Z,100.00
2022-08-17T20:06:49.180Z,100.00
2022-08-17T20:10:05.643Z,100.00
2022-08-17T20:13:33.497Z,100.00
2022-08-17T20:16:45.848Z,100.00
2022-08-17T20:20:03.739Z,100.00
2022-08-17T20:23:24.780Z,100.00
2022-08-17T20:26:47.882Z,100.00
2022-08-17T20:30:11.843Z,100.00
2022-08-17T20:33:29.795Z,100.00
2022-08-17T20:36:58.941Z,100.00
2022-08-17T20:40:20.478Z,100.00
2022-08-17T20:43:48.916Z,100.00
2022-08-17T20:47:06.180Z,100.00
2022-08-17T20:50:30.738Z,100.00
2022-08-17T20:54:35.565Z,100.00
2022-08-17T20:57:49.236Z,100.00
2022-08-17T21:01:13.131Z,100.00
2022-08-17T21:04:47.332Z,100.00
2022-08-17T21:08:02.503Z,100.00
2022-08-17T21:12:04.343Z,100.00
2022-08-17T21:15:29.465Z,100.00
2022-08-17T21:18:51.422Z,100.00
2022-08-17T21:22:15.066Z,100.00
2022-08-17T21:25:44.878Z,100.00
2022-08-17T21:29:29.682Z,100.00
2022-08-17T21:32:42.085Z,100.00
2022-08-17T21:35:58.575Z,100.00
2022-08-17T21:39:12.478Z,100.00
2022-08-17T21:42:29.067Z,100.00
2022-08-17T21:45:42.949Z,100.00
2022-08-17T21:48:58.315Z,100.00
2022-08-17T21:52:08.954Z,100.00
2022-08-17T21:55:23.151Z,100.00
2022-08-17T21:58:40.370Z,100.00
2022-08-17T22:01:53.919Z,100.00
2022-08-17T22:05:08.387Z,100.00
2022-08-17T22:08:21.793Z,100.00
2022-08-17T22:11:32.237Z,100.00
2022-08-17T22:14:52.374Z,100.00
2022-08-17T22:18:05.198Z,100.00
2022-08-17T22:21:18.480Z,100.00
2022-08-17T22:24:33.524Z,100.00
2022-08-17T22:27:54.512Z,100.00
2022-08-17T22:31:09.108Z,100.00
2022-08-17T22:34:20.507Z,100.00
2022-08-17T22:37:31.547Z,100.00
2022-08-17T22:40:49.036Z,100.00
2022-08-17T22:44:02.406Z,100.00
2022-08-17T22:47:29.483Z,100.00
2022-08-17T22:50:39.474Z,100.00
2022-08-17T22:54:09.826Z,100.00
2022-08-17T22:57:52.188Z,100.00
2022-08-17T23:01:24.204Z,100.00
2022-08-17T23:04:40.290Z,100.00
2022-08-17T23:07:54.002Z,100.00
2022-08-17T23:11:06.721Z,100.00
2022-08-17T23:14:18.450Z,100.00
2022-08-17T23:17:33.895Z,100.00
2022-08-17T23:20:48.286Z,100.00
2022-08-17T23:23:59.083Z,100.00
2022-08-17T23:27:09.490Z,100.00
2022-08-17T23:30:20.262Z,100.00
2022-08-17T23:33:34.323Z,100.00
2022-08-17T23:36:52.561Z,100.00
2022-08-17T23:40:03.436Z,100.00
2022-08-17T23:43:24.353Z,100.00
2022-08-17T23:46:35.843Z,100.00
2022-08-17T23:49:46.110Z,100.00
2022-08-17T23:52:58.154Z,100.00
2022-08-17T23:56:11.106Z,100.00
2022-08-17T23:59:23.877Z,100.00
